Skip Navigation Links
NOAA logo - Click to go to the NOAA homepage
NOAA's National Weather Service
Alaska Aviation Weather Unit
  NWS logo - Click to go to the NWS homepage
Left Navbar Graphic     10 AKDT = 18 GMT

   
NOAA is celebrating 200 years of science, service, and stewardship. Visit the NOAA 200th celebration Web site to learn more.
USA.gov is the U.S. Government's official Web portal to all Federal, state and local government Web resources and services.
Facebook
NWS on Facebook

Important Change Regarding the AAWU Web Presence

 

Over the last several months, the AAWU has been working to navigate its webpages to a nationally supported server. Security, as well as other needs, have necessitated the change.  We have been given an extension for the site changeover while we diligently work at addressing feedback received. As of July 14, 2017, aawu.arh.noaa.gov will be discontinued. The new AAWU web address is weather.gov/aawu. It is now live and will run in-parallel with the old site until it is discontinued on July 14, 2017. Please continue to send any feedback or questions regarding the new webpages to nws.ar.aawu.webauthors@noaa.gov.  Thank you for your patience during this time of transition.
AAWU Home :: Display TAF Add Bookmark
SPECI PAWI 261223Z AUTO 24012KT 10SM SCT023 BKN046 02/01 A3008 RMK AO2
     T00220011 TSNO=

METAR PAWI 261253Z AUTO 24012KT 10SM BKN040 02/01 A3008 RMK AO2 SLP187
     T00220011 TSNO=

PAWI 261353Z AUTO 24012KT 10SM FEW016 BKN035 02/01 A3008 RMK AO2
     SLP185 T00220011 TSNO=

METAR PAWI 261453Z AUTO 24008KT 10SM FEW014 BKN023 OVC042 02/02 A3007
     RMK AO2 SLP185 T00220017 58002 TSNO=

SPECI PAWI 261508Z AUTO 23010KT 10SM FEW016 SCT023 OVC041 02/02 A3007
     RMK AO2 T00220017 TSNO=

METAR PAWI 261553Z AUTO 21009KT 9SM FEW009 BKN040 02/01 A3008 RMK AO2
     SLP187 T00170006 TSNO=

SPECI PAWI 261614Z AUTO 21008KT 7SM FEW009 BKN026 OVC038 02/01 A3008 RMK
     AO2 T00170011 TSNO=

METAR PAWI 261653Z AUTO 20010KT 6SM BR BKN007 OVC018 01/01 A3008 RMK AO2
     SLP188 T00110011 TSNO=

SPECI PAWI 261709Z AUTO 21011KT 5SM BR SCT008 SCT017 OVC035 01/01 A3008
     RMK AO2 T00110006 TSNO=

METAR PAWI 261753Z AUTO 21008KT 6SM BR FEW012 SCT017 OVC034 01/01 A3009
     RMK AO2 SLP189 T00060006 10028 20006 51004 TSNO=

SPECI PAWI 261802Z AUTO 22009KT 7SM FEW014 BKN029 OVC036 01/01 A3008 RMK
     AO2 T00060006 TSNO=


NOAA's National Weather Service
Alaska Aviation Weather Unit
6930 Sand Lake Road
Anchorage, AK 99502-1845
Disclaimer
Credits
Glossary
Privacy Policy
About Us
Career Opportunities
Contact AAWU Internet Services Site last modified: April, 17th 2012